sensor_id;sensor_type;location;lat;lon;timestamp;pressure;altitude;pressure_sealevel;temperature
64960;BMP180;51487;52.266;10.542;2022-08-11T00:00:40;101482.00;;;17.90
64960;BMP180;51487;52.266;10.542;2022-08-11T00:03:12;101485.00;;;17.90
64960;BMP180;51487;52.266;10.542;2022-08-11T00:05:46;101475.00;;;17.90
64960;BMP180;51487;52.266;10.542;2022-08-11T00:08:24;101476.00;;;17.90
64960;BMP180;51487;52.266;10.542;2022-08-11T00:11:02;101477.00;;;17.90
64960;BMP180;51487;52.266;10.542;2022-08-11T00:13:38;101469.00;;;17.80
64960;BMP180;51487;52.266;10.542;2022-08-11T00:16:24;101471.00;;;17.80
64960;BMP180;51487;52.266;10.542;2022-08-11T00:18:52;101470.00;;;17.70
64960;BMP180;51487;52.266;10.542;2022-08-11T00:21:21;101469.00;;;17.70
64960;BMP180;51487;52.266;10.542;2022-08-11T00:23:59;101471.00;;;17.70
64960;BMP180;51487;52.266;10.542;2022-08-11T00:26:27;101475.00;;;17.60
64960;BMP180;51487;52.266;10.542;2022-08-11T00:28:54;101476.00;;;17.60
64960;BMP180;51487;52.266;10.542;2022-08-11T00:31:25;101478.00;;;17.60
64960;BMP180;51487;52.266;10.542;2022-08-11T00:33:54;101478.00;;;17.50
64960;BMP180;51487;52.266;10.542;2022-08-11T00:36:26;101479.00;;;17.50
64960;BMP180;51487;52.266;10.542;2022-08-11T00:39:04;101484.00;;;17.50
64960;BMP180;51487;52.266;10.542;2022-08-11T00:41:46;101480.00;;;17.40
64960;BMP180;51487;52.266;10.542;2022-08-11T00:48:04;101474.00;;;17.30
64960;BMP180;51487;52.266;10.542;2022-08-11T00:50:57;101475.00;;;17.30
64960;BMP180;51487;52.266;10.542;2022-08-11T01:05:50;101469.00;;;17.10
64960;BMP180;51487;52.266;10.542;2022-08-11T01:11:34;101477.00;;;17.10
64960;BMP180;51487;52.266;10.542;2022-08-11T01:17:31;101474.00;;;17.10
64960;BMP180;51487;52.266;10.542;2022-08-11T01:20:34;101474.00;;;17.00
64960;BMP180;51487;52.266;10.542;2022-08-11T01:27:19;101472.00;;;16.90
64960;BMP180;51487;52.266;10.542;2022-08-11T01:53:50;101479.00;;;16.50
64960;BMP180;51487;52.266;10.542;2022-08-11T01:59:30;101480.00;;;16.40
64960;BMP180;51487;52.266;10.542;2022-08-11T02:02:07;101481.00;;;16.40
64960;BMP180;51487;52.266;10.542;2022-08-11T02:04:55;101477.00;;;16.30
64960;BMP180;51487;52.266;10.542;2022-08-11T02:07:34;101481.00;;;16.20
64960;BMP180;51487;52.266;10.542;2022-08-11T02:10:32;101484.00;;;16.10
64960;BMP180;51487;52.266;10.542;2022-08-11T02:23:20;101471.00;;;16.10
64960;BMP180;51487;52.266;10.542;2022-08-11T02:35:25;101473.00;;;16.10
64960;BMP180;51487;52.266;10.542;2022-08-11T02:50:38;101465.00;;;15.90
64960;BMP180;51487;52.266;10.542;2022-08-11T02:53:21;101463.00;;;15.90
64960;BMP180;51487;52.266;10.542;2022-08-11T02:59:06;101468.00;;;15.70
64960;BMP180;51487;52.266;10.542;2022-08-11T03:02:31;101468.00;;;15.70
64960;BMP180;51487;52.266;10.542;2022-08-11T03:06:06;101469.00;;;15.60
64960;BMP180;51487;52.266;10.542;2022-08-11T03:08:49;101461.00;;;15.60
64960;BMP180;51487;52.266;10.542;2022-08-11T03:12:29;101469.00;;;15.60
64960;BMP180;51487;52.266;10.542;2022-08-11T03:15:06;101480.00;;;15.50
64960;BMP180;51487;52.266;10.542;2022-08-11T03:23:38;101473.00;;;15.50
64960;BMP180;51487;52.266;10.542;2022-08-11T03:26:22;101462.00;;;15.40
64960;BMP180;51487;52.266;10.542;2022-08-11T03:32:27;101471.00;;;15.40
64960;BMP180;51487;52.266;10.542;2022-08-11T03:34:58;101464.00;;;15.40
64960;BMP180;51487;52.266;10.542;2022-08-11T03:37:50;101468.00;;;15.40
64960;BMP180;51487;52.266;10.542;2022-08-11T03:40:57;101469.00;;;15.40
64960;BMP180;51487;52.266;10.542;2022-08-11T03:50:21;101470.00;;;15.30
64960;BMP180;51487;52.266;10.542;2022-08-11T04:02:02;101476.00;;;15.20
64960;BMP180;51487;52.266;10.542;2022-08-11T04:14:09;101469.00;;;15.30
64960;BMP180;51487;52.266;10.542;2022-08-11T04:29:36;101467.00;;;15.20
64960;BMP180;51487;52.266;10.542;2022-08-11T04:32:35;101458.00;;;15.20
64960;BMP180;51487;52.266;10.542;2022-08-11T04:37:46;101457.00;;;15.10
64960;BMP180;51487;52.266;10.542;2022-08-11T04:43:36;101461.00;;;15.10
64960;BMP180;51487;52.266;10.542;2022-08-11T04:46:52;101460.00;;;15.20
64960;BMP180;51487;52.266;10.542;2022-08-11T04:49:49;101460.00;;;15.20
64960;BMP180;51487;52.266;10.542;2022-08-11T04:56:02;101460.00;;;15.20
64960;BMP180;51487;52.266;10.542;2022-08-11T05:17:00;101456.00;;;15.50
64960;BMP180;51487;52.266;10.542;2022-08-11T05:19:51;101462.00;;;15.50
64960;BMP180;51487;52.266;10.542;2022-08-11T05:22:43;101461.00;;;15.60
64960;BMP180;51487;52.266;10.542;2022-08-11T05:25:34;101462.00;;;15.50
64960;BMP180;51487;52.266;10.542;2022-08-11T05:28:32;101466.00;;;15.60
64960;BMP180;51487;52.266;10.542;2022-08-11T05:31:22;101465.00;;;15.60
64960;BMP180;51487;52.266;10.542;2022-08-11T05:34:21;101467.00;;;15.80
64960;BMP180;51487;52.266;10.542;2022-08-11T05:40:10;101459.00;;;15.90
64960;BMP180;51487;52.266;10.542;2022-08-11T05:43:00;101462.00;;;16.00
64960;BMP180;51487;52.266;10.542;2022-08-11T05:46:01;101453.00;;;16.10
64960;BMP180;51487;52.266;10.542;2022-08-11T05:48:47;101465.00;;;16.10
64960;BMP180;51487;52.266;10.542;2022-08-11T05:51:38;101460.00;;;16.20
64960;BMP180;51487;52.266;10.542;2022-08-11T05:54:27;101463.00;;;16.20
64960;BMP180;51487;52.266;10.542;2022-08-11T05:57:23;101461.00;;;16.40
64960;BMP180;51487;52.266;10.542;2022-08-11T05:59:59;101471.00;;;16.50
64960;BMP180;51487;52.266;10.542;2022-08-11T06:02:27;101466.00;;;16.50
64960;BMP180;51487;52.266;10.542;2022-08-11T06:04:57;101475.00;;;16.70
64960;BMP180;51487;52.266;10.542;2022-08-11T06:07:29;101471.00;;;16.90
64960;BMP180;51487;52.266;10.542;2022-08-11T06:09:58;101470.00;;;16.80
64960;BMP180;51487;52.266;10.542;2022-08-11T06:12:30;101473.00;;;16.80
64960;BMP180;51487;52.266;10.542;2022-08-11T06:15:04;101473.00;;;16.90
64960;BMP180;51487;52.266;10.542;2022-08-11T06:17:34;101475.00;;;16.90
64960;BMP180;51487;52.266;10.542;2022-08-11T06:20:08;101471.00;;;17.00
64960;BMP180;51487;52.266;10.542;2022-08-11T06:22:37;101478.00;;;17.10
64960;BMP180;51487;52.266;10.542;2022-08-11T06:25:05;101477.00;;;17.30
64960;BMP180;51487;52.266;10.542;2022-08-11T06:27:35;101470.00;;;17.30
64960;BMP180;51487;52.266;10.542;2022-08-11T06:30:04;101474.00;;;17.40
64960;BMP180;51487;52.266;10.542;2022-08-11T06:32:38;101473.00;;;17.40
64960;BMP180;51487;52.266;10.542;2022-08-11T06:35:22;101477.00;;;17.40
64960;BMP180;51487;52.266;10.542;2022-08-11T06:38:06;101475.00;;;17.50
64960;BMP180;51487;52.266;10.542;2022-08-11T06:40:58;101480.00;;;17.70
64960;BMP180;51487;52.266;10.542;2022-08-11T06:43:52;101474.00;;;17.70
64960;BMP180;51487;52.266;10.542;2022-08-11T06:46:28;101473.00;;;17.90
64960;BMP180;51487;52.266;10.542;2022-08-11T06:48:57;101476.00;;;18.00
64960;BMP180;51487;52.266;10.542;2022-08-11T06:51:26;101478.00;;;18.10
64960;BMP180;51487;52.266;10.542;2022-08-11T06:53:54;101479.00;;;18.20
64960;BMP180;51487;52.266;10.542;2022-08-11T06:56:25;101482.00;;;18.20
64960;BMP180;51487;52.266;10.542;2022-08-11T06:59:14;101478.00;;;18.30
64960;BMP180;51487;52.266;10.542;2022-08-11T07:02:06;101482.00;;;18.40
64960;BMP180;51487;52.266;10.542;2022-08-11T07:04:42;101471.00;;;18.40
64960;BMP180;51487;52.266;10.542;2022-08-11T07:13:22;101476.00;;;18.90
64960;BMP180;51487;52.266;10.542;2022-08-11T07:16:07;101480.00;;;19.00
64960;BMP180;51487;52.266;10.542;2022-08-11T07:18:35;101478.00;;;19.00
64960;BMP180;51487;52.266;10.542;2022-08-11T07:21:29;101474.00;;;19.20
64960;BMP180;51487;52.266;10.542;2022-08-11T07:24:17;101470.00;;;19.20
64960;BMP180;51487;52.266;10.542;2022-08-11T07:27:14;101467.00;;;19.40
64960;BMP180;51487;52.266;10.542;2022-08-11T07:30:07;101462.00;;;19.40
64960;BMP180;51487;52.266;10.542;2022-08-11T07:32:49;101470.00;;;19.60
64960;BMP180;51487;52.266;10.542;2022-08-11T07:35:23;101466.00;;;19.70
64960;BMP180;51487;52.266;10.542;2022-08-11T07:38:01;101466.00;;;19.70
64960;BMP180;51487;52.266;10.542;2022-08-11T07:40:32;101467.00;;;19.80
64960;BMP180;51487;52.266;10.542;2022-08-11T07:42:59;101468.00;;;19.80
64960;BMP180;51487;52.266;10.542;2022-08-11T07:45:27;101467.00;;;19.80
64960;BMP180;51487;52.266;10.542;2022-08-11T07:48:13;101463.00;;;20.00
64960;BMP180;51487;52.266;10.542;2022-08-11T07:50:59;101463.00;;;20.20
64960;BMP180;51487;52.266;10.542;2022-08-11T07:53:45;101469.00;;;20.20
64960;BMP180;51487;52.266;10.542;2022-08-11T07:56:13;101462.00;;;20.30
64960;BMP180;51487;52.266;10.542;2022-08-11T07:58:40;101469.00;;;20.50
64960;BMP180;51487;52.266;10.542;2022-08-11T08:01:26;101474.00;;;20.60
64960;BMP180;51487;52.266;10.542;2022-08-11T08:04:16;101473.00;;;20.70
64960;BMP180;51487;52.266;10.542;2022-08-11T08:07:04;101479.00;;;20.70
64960;BMP180;51487;52.266;10.542;2022-08-11T08:09:50;101475.00;;;20.80
64960;BMP180;51487;52.266;10.542;2022-08-11T08:12:35;101477.00;;;21.00
64960;BMP180;51487;52.266;10.542;2022-08-11T08:15:20;101469.00;;;21.20
64960;BMP180;51487;52.266;10.542;2022-08-11T08:18:06;101477.00;;;21.40
64960;BMP180;51487;52.266;10.542;2022-08-11T08:20:47;101476.00;;;21.50
64960;BMP180;51487;52.266;10.542;2022-08-11T08:23:20;101480.00;;;21.60
64960;BMP180;51487;52.266;10.542;2022-08-11T08:25:58;101477.00;;;21.60
64960;BMP180;51487;52.266;10.542;2022-08-11T08:28:26;101473.00;;;21.70
64960;BMP180;51487;52.266;10.542;2022-08-11T08:30:53;101466.00;;;21.90
64960;BMP180;51487;52.266;10.542;2022-08-11T08:33:21;101467.00;;;21.80
64960;BMP180;51487;52.266;10.542;2022-08-11T08:35:51;101464.00;;;22.00
64960;BMP180;51487;52.266;10.542;2022-08-11T08:38:40;101466.00;;;22.30
64960;BMP180;51487;52.266;10.542;2022-08-11T08:41:08;101462.00;;;22.40
64960;BMP180;51487;52.266;10.542;2022-08-11T08:43:36;101460.00;;;22.50
64960;BMP180;51487;52.266;10.542;2022-08-11T08:46:05;101459.00;;;22.50
64960;BMP180;51487;52.266;10.542;2022-08-11T08:48:34;101448.00;;;22.80
64960;BMP180;51487;52.266;10.542;2022-08-11T08:51:03;101456.00;;;22.90
64960;BMP180;51487;52.266;10.542;2022-08-11T08:53:52;101449.00;;;22.90
64960;BMP180;51487;52.266;10.542;2022-08-11T08:56:25;101446.00;;;22.90
64960;BMP180;51487;52.266;10.542;2022-08-11T08:58:52;101450.00;;;23.00
64960;BMP180;51487;52.266;10.542;2022-08-11T09:01:19;101443.00;;;23.00
64960;BMP180;51487;52.266;10.542;2022-08-11T09:03:47;101437.00;;;23.30
64960;BMP180;51487;52.266;10.542;2022-08-11T09:06:14;101446.00;;;23.50
64960;BMP180;51487;52.266;10.542;2022-08-11T09:08:42;101444.00;;;23.70
64960;BMP180;51487;52.266;10.542;2022-08-11T09:11:09;101450.00;;;23.80
64960;BMP180;51487;52.266;10.542;2022-08-11T09:13:55;101448.00;;;23.90
64960;BMP180;51487;52.266;10.542;2022-08-11T09:16:21;101449.00;;;24.00
64960;BMP180;51487;52.266;10.542;2022-08-11T09:18:48;101443.00;;;24.00
64960;BMP180;51487;52.266;10.542;2022-08-11T09:21:16;101445.00;;;24.20
64960;BMP180;51487;52.266;10.542;2022-08-11T09:23:48;101446.00;;;24.20
64960;BMP180;51487;52.266;10.542;2022-08-11T09:26:34;101446.00;;;24.30
64960;BMP180;51487;52.266;10.542;2022-08-11T09:29:21;101433.00;;;24.20
64960;BMP180;51487;52.266;10.542;2022-08-11T09:31:47;101436.00;;;24.20
64960;BMP180;51487;52.266;10.542;2022-08-11T09:34:13;101431.00;;;24.40
64960;BMP180;51487;52.266;10.542;2022-08-11T09:36:42;101425.00;;;24.30
64960;BMP180;51487;52.266;10.542;2022-08-11T09:39:29;101429.00;;;24.60
64960;BMP180;51487;52.266;10.542;2022-08-11T09:42:15;101416.00;;;24.70
64960;BMP180;51487;52.266;10.542;2022-08-11T09:44:45;101420.00;;;24.70
64960;BMP180;51487;52.266;10.542;2022-08-11T09:47:27;101427.00;;;24.80
64960;BMP180;51487;52.266;10.542;2022-08-11T09:49:58;101431.00;;;24.80
64960;BMP180;51487;52.266;10.542;2022-08-11T09:52:28;101421.00;;;24.70
64960;BMP180;51487;52.266;10.542;2022-08-11T09:54:56;101425.00;;;24.60
64960;BMP180;51487;52.266;10.542;2022-08-11T09:57:24;101415.00;;;24.60
64960;BMP180;51487;52.266;10.542;2022-08-11T10:00:11;101425.00;;;24.80
64960;BMP180;51487;52.266;10.542;2022-08-11T10:02:45;101423.00;;;24.80
64960;BMP180;51487;52.266;10.542;2022-08-11T10:05:16;101421.00;;;25.00
64960;BMP180;51487;52.266;10.542;2022-08-11T10:08:03;101406.00;;;25.00
64960;BMP180;51487;52.266;10.542;2022-08-11T10:10:33;101399.00;;;25.00
64960;BMP180;51487;52.266;10.542;2022-08-11T10:13:10;101404.00;;;25.00
64960;BMP180;51487;52.266;10.542;2022-08-11T10:15:44;101392.00;;;25.10
64960;BMP180;51487;52.266;10.542;2022-08-11T10:18:18;101393.00;;;25.10
64960;BMP180;51487;52.266;10.542;2022-08-11T10:21:10;101387.00;;;25.30
64960;BMP180;51487;52.266;10.542;2022-08-11T10:23:38;101392.00;;;25.60
64960;BMP180;51487;52.266;10.542;2022-08-11T10:26:26;101387.00;;;25.70
64960;BMP180;51487;52.266;10.542;2022-08-11T10:29:13;101385.00;;;25.60
64960;BMP180;51487;52.266;10.542;2022-08-11T10:31:59;101387.00;;;25.50
64960;BMP180;51487;52.266;10.542;2022-08-11T10:34:46;101383.00;;;25.40
64960;BMP180;51487;52.266;10.542;2022-08-11T10:37:15;101378.00;;;25.40
64960;BMP180;51487;52.266;10.542;2022-08-11T10:39:44;101376.00;;;25.50
64960;BMP180;51487;52.266;10.542;2022-08-11T10:42:11;101378.00;;;25.50
64960;BMP180;51487;52.266;10.542;2022-08-11T10:44:57;101381.00;;;25.80
64960;BMP180;51487;52.266;10.542;2022-08-11T10:47:27;101373.00;;;25.80
64960;BMP180;51487;52.266;10.542;2022-08-11T10:50:00;101377.00;;;25.90
64960;BMP180;51487;52.266;10.542;2022-08-11T10:52:47;101373.00;;;25.60
64960;BMP180;51487;52.266;10.542;2022-08-11T10:55:37;101371.00;;;25.70
64960;BMP180;51487;52.266;10.542;2022-08-11T10:58:24;101366.00;;;25.70
64960;BMP180;51487;52.266;10.542;2022-08-11T11:01:09;101364.00;;;25.70
64960;BMP180;51487;52.266;10.542;2022-08-11T11:03:36;101363.00;;;25.70
64960;BMP180;51487;52.266;10.542;2022-08-11T11:09:03;101355.00;;;25.80
64960;BMP180;51487;52.266;10.542;2022-08-11T11:11:36;101360.00;;;25.70
64960;BMP180;51487;52.266;10.542;2022-08-11T11:14:26;101356.00;;;25.70
64960;BMP180;51487;52.266;10.542;2022-08-11T11:17:14;101348.00;;;25.70
64960;BMP180;51487;52.266;10.542;2022-08-11T11:19:57;101348.00;;;25.80
64960;BMP180;51487;52.266;10.542;2022-08-11T11:22:27;101340.00;;;25.90
64960;BMP180;51487;52.266;10.542;2022-08-11T11:30:42;101338.00;;;26.10
64960;BMP180;51487;52.266;10.542;2022-08-11T11:33:27;101338.00;;;26.10
64960;BMP180;51487;52.266;10.542;2022-08-11T11:36:33;101350.00;;;26.30
64960;BMP180;51487;52.266;10.542;2022-08-11T11:39:23;101341.00;;;26.20
64960;BMP180;51487;52.266;10.542;2022-08-11T11:41:53;101349.00;;;26.40
64960;BMP180;51487;52.266;10.542;2022-08-11T11:44:21;101343.00;;;26.40
64960;BMP180;51487;52.266;10.542;2022-08-11T11:46:48;101336.00;;;26.20
64960;BMP180;51487;52.266;10.542;2022-08-11T11:49:17;101335.00;;;26.20
64960;BMP180;51487;52.266;10.542;2022-08-11T11:51:46;101334.00;;;26.10
64960;BMP180;51487;52.266;10.542;2022-08-11T11:54:15;101330.00;;;26.30
64960;BMP180;51487;52.266;10.542;2022-08-11T11:56:44;101338.00;;;26.30
64960;BMP180;51487;52.266;10.542;2022-08-11T11:59:11;101331.00;;;26.30
64960;BMP180;51487;52.266;10.542;2022-08-11T12:01:57;101331.00;;;26.40
64960;BMP180;51487;52.266;10.542;2022-08-11T12:04:25;101333.00;;;26.60
64960;BMP180;51487;52.266;10.542;2022-08-11T12:06:52;101328.00;;;26.60
64960;BMP180;51487;52.266;10.542;2022-08-11T12:09:39;101316.00;;;26.70
64960;BMP180;51487;52.266;10.542;2022-08-11T12:12:05;101314.00;;;26.60
64960;BMP180;51487;52.266;10.542;2022-08-11T12:14:52;101315.00;;;26.80
64960;BMP180;51487;52.266;10.542;2022-08-11T12:17:19;101311.00;;;26.80
64960;BMP180;51487;52.266;10.542;2022-08-11T12:19:45;101307.00;;;26.90
64960;BMP180;51487;52.266;10.542;2022-08-11T12:22:12;101308.00;;;26.90
64960;BMP180;51487;52.266;10.542;2022-08-11T12:24:56;101307.00;;;26.90
64960;BMP180;51487;52.266;10.542;2022-08-11T12:27:41;101301.00;;;27.00
64960;BMP180;51487;52.266;10.542;2022-08-11T12:30:07;101305.00;;;27.00
64960;BMP180;51487;52.266;10.542;2022-08-11T12:32:35;101300.00;;;27.10
64960;BMP180;51487;52.266;10.542;2022-08-11T12:35:04;101297.00;;;27.10
64960;BMP180;51487;52.266;10.542;2022-08-11T12:37:35;101294.00;;;27.00
64960;BMP180;51487;52.266;10.542;2022-08-11T12:40:08;101288.00;;;26.80
64960;BMP180;51487;52.266;10.542;2022-08-11T12:42:59;101289.00;;;26.70
64960;BMP180;51487;52.266;10.542;2022-08-11T12:45:54;101283.00;;;26.90
64960;BMP180;51487;52.266;10.542;2022-08-11T12:48:23;101274.00;;;27.10
64960;BMP180;51487;52.266;10.542;2022-08-11T12:51:18;101264.00;;;27.20
64960;BMP180;51487;52.266;10.542;2022-08-11T12:54:16;101258.00;;;27.10
64960;BMP180;51487;52.266;10.542;2022-08-11T12:56:59;101263.00;;;27.40
64960;BMP180;51487;52.266;10.542;2022-08-11T12:59:47;101256.00;;;27.30
64960;BMP180;51487;52.266;10.542;2022-08-11T13:02:33;101265.00;;;27.40
64960;BMP180;51487;52.266;10.542;2022-08-11T13:05:18;101254.00;;;27.20
64960;BMP180;51487;52.266;10.542;2022-08-11T13:07:47;101253.00;;;27.40
64960;BMP180;51487;52.266;10.542;2022-08-11T13:10:15;101254.00;;;27.50
64960;BMP180;51487;52.266;10.542;2022-08-11T13:13:06;101243.00;;;27.40
64960;BMP180;51487;52.266;10.542;2022-08-11T13:15:33;101248.00;;;27.30
64960;BMP180;51487;52.266;10.542;2022-08-11T13:18:03;101241.00;;;27.30
64960;BMP180;51487;52.266;10.542;2022-08-11T13:20:32;101242.00;;;27.30
64960;BMP180;51487;52.266;10.542;2022-08-11T13:23:00;101240.00;;;27.40
64960;BMP180;51487;52.266;10.542;2022-08-11T13:25:27;101243.00;;;27.60
64960;BMP180;51487;52.266;10.542;2022-08-11T13:27:57;101230.00;;;27.70
64960;BMP180;51487;52.266;10.542;2022-08-11T13:30:26;101230.00;;;27.70
64960;BMP180;51487;52.266;10.542;2022-08-11T13:33:13;101234.00;;;27.80
64960;BMP180;51487;52.266;10.542;2022-08-11T13:35:43;101235.00;;;27.80
64960;BMP180;51487;52.266;10.542;2022-08-11T13:38:10;101239.00;;;27.80
64960;BMP180;51487;52.266;10.542;2022-08-11T13:40:38;101232.00;;;27.90
64960;BMP180;51487;52.266;10.542;2022-08-11T13:43:05;101224.00;;;27.80
64960;BMP180;51487;52.266;10.542;2022-08-11T13:45:34;101231.00;;;28.00
64960;BMP180;51487;52.266;10.542;2022-08-11T13:48:02;101217.00;;;28.00
64960;BMP180;51487;52.266;10.542;2022-08-11T13:50:33;101214.00;;;28.20
64960;BMP180;51487;52.266;10.542;2022-08-11T13:53:24;101214.00;;;28.30
64960;BMP180;51487;52.266;10.542;2022-08-11T13:55:52;101215.00;;;28.30
64960;BMP180;51487;52.266;10.542;2022-08-11T13:58:20;101213.00;;;28.40
64960;BMP180;51487;52.266;10.542;2022-08-11T14:00:49;101210.00;;;28.30
64960;BMP180;51487;52.266;10.542;2022-08-11T14:03:20;101206.00;;;28.10
64960;BMP180;51487;52.266;10.542;2022-08-11T14:05:51;101205.00;;;28.00
64960;BMP180;51487;52.266;10.542;2022-08-11T14:08:25;101199.00;;;28.00
64960;BMP180;51487;52.266;10.542;2022-08-11T14:10:55;101195.00;;;28.00
64960;BMP180;51487;52.266;10.542;2022-08-11T14:13:44;101202.00;;;28.10
64960;BMP180;51487;52.266;10.542;2022-08-11T14:16:32;101191.00;;;28.20
64960;BMP180;51487;52.266;10.542;2022-08-11T14:19:04;101183.00;;;28.10
64960;BMP180;51487;52.266;10.542;2022-08-11T14:21:37;101190.00;;;28.30
64960;BMP180;51487;52.266;10.542;2022-08-11T14:24:27;101190.00;;;28.40
64960;BMP180;51487;52.266;10.542;2022-08-11T14:26:54;101194.00;;;28.40
64960;BMP180;51487;52.266;10.542;2022-08-11T14:29:22;101188.00;;;28.40
64960;BMP180;51487;52.266;10.542;2022-08-11T14:31:55;101184.00;;;28.40
64960;BMP180;51487;52.266;10.542;2022-08-11T14:34:28;101194.00;;;28.60
64960;BMP180;51487;52.266;10.542;2022-08-11T14:36:57;101190.00;;;28.60
64960;BMP180;51487;52.266;10.542;2022-08-11T14:39:26;101186.00;;;28.60
64960;BMP180;51487;52.266;10.542;2022-08-11T14:41:56;101183.00;;;28.60
64960;BMP180;51487;52.266;10.542;2022-08-11T14:44:48;101174.00;;;28.60
64960;BMP180;51487;52.266;10.542;2022-08-11T14:47:54;101172.00;;;28.50
64960;BMP180;51487;52.266;10.542;2022-08-11T14:50:25;101164.00;;;28.70
64960;BMP180;51487;52.266;10.542;2022-08-11T14:52:59;101176.00;;;28.70
64960;BMP180;51487;52.266;10.542;2022-08-11T14:55:31;101170.00;;;28.80
64960;BMP180;51487;52.266;10.542;2022-08-11T14:58:21;101160.00;;;28.80
64960;BMP180;51487;52.266;10.542;2022-08-11T15:01:00;101161.00;;;28.90
64960;BMP180;51487;52.266;10.542;2022-08-11T15:03:30;101172.00;;;28.90
64960;BMP180;51487;52.266;10.542;2022-08-11T15:06:01;101159.00;;;28.90
64960;BMP180;51487;52.266;10.542;2022-08-11T15:08:32;101155.00;;;28.90
64960;BMP180;51487;52.266;10.542;2022-08-11T15:11:20;101154.00;;;29.00
64960;BMP180;51487;52.266;10.542;2022-08-11T15:14:10;101150.00;;;29.00
64960;BMP180;51487;52.266;10.542;2022-08-11T15:16:42;101147.00;;;29.00
64960;BMP180;51487;52.266;10.542;2022-08-11T15:19:28;101145.00;;;29.00
64960;BMP180;51487;52.266;10.542;2022-08-11T15:21:56;101149.00;;;29.20
64960;BMP180;51487;52.266;10.542;2022-08-11T15:24:40;101145.00;;;29.20
64960;BMP180;51487;52.266;10.542;2022-08-11T15:27:11;101134.00;;;29.40
64960;BMP180;51487;52.266;10.542;2022-08-11T15:29:58;101133.00;;;29.40
64960;BMP180;51487;52.266;10.542;2022-08-11T15:32:45;101132.00;;;29.50
64960;BMP180;51487;52.266;10.542;2022-08-11T15:35:33;101122.00;;;29.60
64960;BMP180;51487;52.266;10.542;2022-08-11T15:38:20;101126.00;;;29.60
64960;BMP180;51487;52.266;10.542;2022-08-11T15:40:48;101134.00;;;29.60
64960;BMP180;51487;52.266;10.542;2022-08-11T15:43:37;101127.00;;;29.60
64960;BMP180;51487;52.266;10.542;2022-08-11T15:46:40;101125.00;;;29.70
64960;BMP180;51487;52.266;10.542;2022-08-11T15:49:14;101121.00;;;29.70
64960;BMP180;51487;52.266;10.542;2022-08-11T15:51:59;101122.00;;;29.70
64960;BMP180;51487;52.266;10.542;2022-08-11T15:54:31;101117.00;;;29.80
64960;BMP180;51487;52.266;10.542;2022-08-11T15:57:00;101112.00;;;29.90
64960;BMP180;51487;52.266;10.542;2022-08-11T15:59:31;101117.00;;;30.10
64960;BMP180;51487;52.266;10.542;2022-08-11T16:02:21;101114.00;;;30.10
64960;BMP180;51487;52.266;10.542;2022-08-11T16:04:51;101117.00;;;30.00
64960;BMP180;51487;52.266;10.542;2022-08-11T16:07:21;101110.00;;;30.30
64960;BMP180;51487;52.266;10.542;2022-08-11T16:10:00;101112.00;;;30.30
64960;BMP180;51487;52.266;10.542;2022-08-11T16:12:41;101099.00;;;30.40
64960;BMP180;51487;52.266;10.542;2022-08-11T16:15:30;101104.00;;;30.60
64960;BMP180;51487;52.266;10.542;2022-08-11T16:18:19;101101.00;;;30.80
64960;BMP180;51487;52.266;10.542;2022-08-11T16:20:49;101104.00;;;30.90
64960;BMP180;51487;52.266;10.542;2022-08-11T16:23:21;101095.00;;;31.00
64960;BMP180;51487;52.266;10.542;2022-08-11T16:25:53;101088.00;;;31.00
64960;BMP180;51487;52.266;10.542;2022-08-11T16:28:21;101094.00;;;31.10
64960;BMP180;51487;52.266;10.542;2022-08-11T16:30:49;101090.00;;;31.30
64960;BMP180;51487;52.266;10.542;2022-08-11T16:33:17;101082.00;;;31.40
64960;BMP180;51487;52.266;10.542;2022-08-11T16:35:45;101083.00;;;31.50
64960;BMP180;51487;52.266;10.542;2022-08-11T16:38:31;101085.00;;;31.50
64960;BMP180;51487;52.266;10.542;2022-08-11T16:41:11;101082.00;;;31.40
64960;BMP180;51487;52.266;10.542;2022-08-11T16:43:44;101089.00;;;30.90
64960;BMP180;51487;52.266;10.542;2022-08-11T16:46:29;101085.00;;;31.10
64960;BMP180;51487;52.266;10.542;2022-08-11T16:49:05;101082.00;;;30.90
64960;BMP180;51487;52.266;10.542;2022-08-11T16:51:35;101091.00;;;31.00
64960;BMP180;51487;52.266;10.542;2022-08-11T16:54:01;101094.00;;;30.80
64960;BMP180;51487;52.266;10.542;2022-08-11T16:56:32;101102.00;;;30.30
64960;BMP180;51487;52.266;10.542;2022-08-11T16:59:01;101103.00;;;29.80
64960;BMP180;51487;52.266;10.542;2022-08-11T17:01:43;101106.00;;;29.40
64960;BMP180;51487;52.266;10.542;2022-08-11T17:04:30;101111.00;;;29.20
64960;BMP180;51487;52.266;10.542;2022-08-11T17:07:19;101110.00;;;28.90
64960;BMP180;51487;52.266;10.542;2022-08-11T17:10:12;101108.00;;;28.80
64960;BMP180;51487;52.266;10.542;2022-08-11T17:13:04;101115.00;;;28.50
64960;BMP180;51487;52.266;10.542;2022-08-11T17:15:36;101110.00;;;28.40
64960;BMP180;51487;52.266;10.542;2022-08-11T17:18:25;101115.00;;;28.30
64960;BMP180;51487;52.266;10.542;2022-08-11T17:21:15;101110.00;;;28.10
64960;BMP180;51487;52.266;10.542;2022-08-11T17:23:49;101109.00;;;28.10
64960;BMP180;51487;52.266;10.542;2022-08-11T17:26:23;101107.00;;;28.00
64960;BMP180;51487;52.266;10.542;2022-08-11T17:29:18;101105.00;;;27.90
64960;BMP180;51487;52.266;10.542;2022-08-11T17:31:46;101096.00;;;27.90
64960;BMP180;51487;52.266;10.542;2022-08-11T17:34:33;101109.00;;;27.80
64960;BMP180;51487;52.266;10.542;2022-08-11T17:37:27;101104.00;;;27.70
64960;BMP180;51487;52.266;10.542;2022-08-11T17:39:59;101106.00;;;27.70
64960;BMP180;51487;52.266;10.542;2022-08-11T17:42:28;101103.00;;;27.60
64960;BMP180;51487;52.266;10.542;2022-08-11T17:45:17;101103.00;;;27.60
64960;BMP180;51487;52.266;10.542;2022-08-11T17:48:03;101100.00;;;27.50